Time;durP1;ratioP1;P1;durP2;ratioP2;P2;SDS_P1;SDS_P2;PMS_P1;PMS_P2;Temp;Humidity;BMP_temperature;BMP_pressure;BME280_temperature;BME280_humidity;BME280_pressure;Samples;Min_cycle;Max_cycle;Signal;HPM_P1;HPM_P2
2023/10/04 00:00:20;;;;;;;;;;;21.10;72.20;;;;;;5020328;28;1514;-65
2023/10/04 00:02:48;;;;;;;;;;;21.10;72.20;;;;;;4999928;28;1895;-65
2023/10/04 00:05:17;;;;;;;;;;;21.10;72.20;;;;;;5021488;28;1143;-65
2023/10/04 00:07:44;;;;;;;;;;;21.10;72.20;;;;;;5008775;28;1171;-65
2023/10/04 00:10:09;;;;;;;;;;;21.10;72.20;;;;;;5005689;28;1279;-65
2023/10/04 00:12:35;;;;;;;;;;;21.10;72.20;;;;;;5018689;28;1315;-65
2023/10/04 00:15:01;;;;;;;;;;;21.10;72.20;;;;;;5005914;28;1285;-65
2023/10/04 00:17:27;;;;;;;;;;;21.10;72.20;;;;;;5020370;28;1152;-65
2023/10/04 00:19:53;;;;;;;;;;;21.10;72.20;;;;;;5021871;28;1222;-65
2023/10/04 00:22:19;;;;;;;;;;;21.10;72.20;;;;;;5022060;28;1960;-65
2023/10/04 00:24:44;;;;;;;;;;;21.10;72.20;;;;;;5001723;28;1890;-65
2023/10/04 00:27:10;;;;;;;;;;;21.10;72.30;;;;;;5021080;28;1344;-65
2023/10/04 00:29:36;;;;;;;;;;;21.10;72.20;;;;;;5019106;28;1648;-66
2023/10/04 00:32:03;;;;;;;;;;;21.10;72.20;;;;;;5003078;28;1264;-65
2023/10/04 00:34:29;;;;;;;;;;;21.10;72.20;;;;;;5020791;28;1311;-65
2023/10/04 00:36:56;;;;;;;;;;;21.10;72.30;;;;;;5020843;28;961;-65
2023/10/04 00:39:21;;;;;;;;;;;21.10;72.20;;;;;;5022516;28;1340;-65
2023/10/04 00:41:50;;;;;;;;;;;21.10;72.20;;;;;;5022479;28;1214;-65
2023/10/04 00:44:16;;;;;;;;;;;21.10;72.20;;;;;;5023392;28;2019;-65
2023/10/04 00:46:41;;;;;;;;;;;21.10;72.30;;;;;;5019851;28;1209;-65
2023/10/04 00:49:08;;;;;;;;;;;21.10;72.30;;;;;;5022632;28;1439;-65
2023/10/04 00:51:36;;;;;;;;;;;21.10;72.30;;;;;;5003170;28;1253;-65
2023/10/04 00:54:04;;;;;;;;;;;21.10;72.30;;;;;;5003644;28;1548;-65
2023/10/04 00:56:29;;;;;;;;;;;21.10;72.30;;;;;;4991309;28;1452;-65
2023/10/04 00:58:55;;;;;;;;;;;21.10;72.30;;;;;;5020620;28;1181;-65
2023/10/04 01:01:21;;;;;;;;;;;21.10;72.30;;;;;;5001059;28;1648;-65
2023/10/04 01:03:47;;;;;;;;;;;21.10;72.30;;;;;;5022703;28;1954;-65
2023/10/04 01:06:12;;;;;;;;;;;21.10;72.30;;;;;;5019489;28;1449;-65
2023/10/04 01:08:39;;;;;;;;;;;21.10;72.30;;;;;;5024943;28;1413;-65
2023/10/04 01:11:10;;;;;;;;;;;21.10;72.30;;;;;;5023013;28;1565;-65
2023/10/04 01:13:38;;;;;;;;;;;21.10;72.30;;;;;;5022340;28;1451;-65
2023/10/04 01:16:08;;;;;;;;;;;21.10;72.40;;;;;;5019814;28;1499;-65
2023/10/04 01:18:34;;;;;;;;;;;21.10;72.30;;;;;;5004755;28;1413;-65
2023/10/04 01:20:59;;;;;;;;;;;21.10;72.30;;;;;;5018150;28;1522;-65
2023/10/04 01:23:25;;;;;;;;;;;21.10;72.30;;;;;;5004959;28;1902;-65
2023/10/04 01:25:51;;;;;;;;;;;21.10;72.30;;;;;;5020584;28;1230;-66
2023/10/04 01:28:17;;;;;;;;;;;21.10;72.30;;;;;;5012079;28;1530;-65
2023/10/04 01:30:43;;;;;;;;;;;21.10;72.30;;;;;;5023329;28;1416;-66
2023/10/04 01:33:12;;;;;;;;;;;21.10;72.30;;;;;;5008068;28;1372;-66
2023/10/04 01:35:38;;;;;;;;;;;21.10;72.30;;;;;;5008479;28;1409;-66
2023/10/04 01:38:06;;;;;;;;;;;21.10;72.30;;;;;;5005323;28;1450;-65
2023/10/04 01:40:35;;;;;;;;;;;21.10;72.30;;;;;;5018753;28;1045;-65
2023/10/04 01:43:01;;;;;;;;;;;21.10;72.30;;;;;;4989474;28;1970;-66
2023/10/04 01:45:27;;;;;;;;;;;21.10;72.40;;;;;;5021850;28;1244;-66
2023/10/04 01:47:52;;;;;;;;;;;21.10;72.30;;;;;;5003349;28;1410;-66
2023/10/04 01:50:18;;;;;;;;;;;21.00;72.30;;;;;;5025112;28;1241;-65
2023/10/04 01:52:45;;;;;;;;;;;21.10;72.30;;;;;;5023508;28;1378;-65
2023/10/04 01:55:11;;;;;;;;;;;21.10;72.30;;;;;;5012896;28;1406;-65
2023/10/04 01:57:38;;;;;;;;;;;21.10;72.30;;;;;;5005758;28;1473;-66
2023/10/04 02:00:04;;;;;;;;;;;21.10;72.30;;;;;;5028218;28;1320;-65
2023/10/04 02:02:29;;;;;;;;;;;21.00;72.30;;;;;;5005360;28;1906;-66
2023/10/04 02:04:56;;;;;;;;;;;21.10;72.40;;;;;;5025863;28;1362;-65
2023/10/04 02:07:24;;;;;;;;;;;21.10;72.30;;;;;;5020110;28;1334;-65
2023/10/04 02:09:51;;;;;;;;;;;21.10;72.40;;;;;;5025642;28;1459;-65
2023/10/04 02:12:18;;;;;;;;;;;21.00;72.30;;;;;;5009978;28;1355;-65
2023/10/04 02:14:47;;;;;;;;;;;21.00;72.30;;;;;;5020898;28;1531;-65
2023/10/04 02:17:16;;;;;;;;;;;21.10;72.40;;;;;;5012051;28;1354;-65
2023/10/04 02:19:42;;;;;;;;;;;21.00;72.30;;;;;;5023685;28;1325;-65
2023/10/04 02:22:09;;;;;;;;;;;21.10;72.40;;;;;;5023686;28;1129;-65
2023/10/04 02:24:35;;;;;;;;;;;21.00;72.30;;;;;;5025117;28;1902;-65
2023/10/04 02:27:01;;;;;;;;;;;21.10;72.40;;;;;;5024263;28;1254;-65
2023/10/04 02:29:27;;;;;;;;;;;21.00;72.30;;;;;;5023729;28;1432;-65
2023/10/04 02:31:53;;;;;;;;;;;21.00;72.30;;;;;;5025506;28;1445;-65
2023/10/04 02:34:19;;;;;;;;;;;21.00;72.30;;;;;;5055008;22;1960;-70
2023/10/04 02:36:45;;;;;;;;;;;21.00;72.30;;;;;;5046333;28;1357;-71
2023/10/04 02:39:11;;;;;;;;;;;21.10;72.40;;;;;;5029777;28;1217;-70
2023/10/04 02:41:36;;;;;;;;;;;21.00;72.30;;;;;;5049085;28;1207;-71
2023/10/04 02:44:02;;;;;;;;;;;21.00;72.30;;;;;;5051685;28;1959;-69
2023/10/04 02:46:28;;;;;;;;;;;21.00;72.30;;;;;;5016684;28;1265;-70
2023/10/04 02:48:54;;;;;;;;;;;21.10;72.40;;;;;;5035866;28;1275;-70
2023/10/04 02:51:20;;;;;;;;;;;21.10;72.40;;;;;;5057341;28;1234;-70
2023/10/04 02:53:45;;;;;;;;;;;21.00;72.40;;;;;;5052965;28;1334;-70
2023/10/04 02:56:11;;;;;;;;;;;21.00;72.40;;;;;;5052218;28;1315;-70
2023/10/04 02:58:36;;;;;;;;;;;21.00;72.40;;;;;;5056550;28;1436;-70
2023/10/04 03:01:02;;;;;;;;;;;21.00;72.40;;;;;;5041014;28;1381;-70
2023/10/04 03:03:30;;;;;;;;;;;21.00;72.30;;;;;;5056561;28;1971;-69
2023/10/04 03:05:56;;;;;;;;;;;21.00;72.40;;;;;;5041751;28;1422;-72
2023/10/04 03:08:23;;;;;;;;;;;21.00;72.40;;;;;;5046096;28;1338;-69
2023/10/04 03:10:50;;;;;;;;;;;21.00;72.40;;;;;;5054583;28;1221;-70
2023/10/04 03:13:27;;;;;;;;;;;21.00;72.40;;;;;;5050523;28;1381;-70
2023/10/04 03:15:53;;;;;;;;;;;21.10;72.40;;;;;;5041865;28;1394;-69
2023/10/04 03:18:19;;;;;;;;;;;21.00;72.40;;;;;;5029666;28;1236;-69
2023/10/04 03:23:27;;;;;;;;;;;21.10;72.40;;;;;;5036309;28;1902;-69
2023/10/04 03:25:53;;;;;;;;;;;21.00;72.40;;;;;;5049660;28;1440;-69
2023/10/04 03:28:25;;;;;;;;;;;21.00;72.40;;;;;;5049242;28;1329;-69
2023/10/04 03:30:50;;;;;;;;;;;21.00;72.40;;;;;;5034155;28;1635;-70
2023/10/04 03:33:17;;;;;;;;;;;21.00;73.20;;;;;;5051947;28;1473;-70
2023/10/04 03:35:44;;;;;;;;;;;21.10;72.50;;;;;;5056140;28;1480;-69
2023/10/04 03:38:11;;;;;;;;;;;21.00;72.40;;;;;;5047153;28;1588;-70
2023/10/04 03:40:38;;;;;;;;;;;21.00;72.40;;;;;;5036674;28;1255;-70
2023/10/04 03:43:06;;;;;;;;;;;21.00;72.40;;;;;;5039703;28;1903;-70
2023/10/04 03:45:32;;;;;;;;;;;21.00;72.40;;;;;;5051809;28;1315;-70
2023/10/04 03:47:58;;;;;;;;;;;21.00;72.40;;;;;;5047907;28;1465;-70
2023/10/04 03:50:24;;;;;;;;;;;21.00;72.40;;;;;;5040180;28;1384;-69
2023/10/04 03:52:51;;;;;;;;;;;21.00;72.40;;;;;;5050181;28;1255;-70
2023/10/04 03:55:17;;;;;;;;;;;21.00;72.40;;;;;;5039938;28;1339;-70
2023/10/04 03:57:42;;;;;;;;;;;21.00;72.40;;;;;;5035591;28;1429;-70
2023/10/04 04:00:11;;;;;;;;;;;21.00;72.40;;;;;;5034070;28;1260;-70
2023/10/04 04:02:37;;;;;;;;;;;21.00;72.70;;;;;;5048748;28;1910;-70
2023/10/04 04:05:11;;;;;;;;;;;21.00;72.40;;;;;;5047004;28;1300;-70
2023/10/04 04:07:37;;;;;;;;;;;21.00;72.40;;;;;;5042869;28;1020;-70
2023/10/04 04:10:03;;;;;;;;;;;21.00;72.40;;;;;;5032741;28;955;-70
2023/10/04 04:12:29;;;;;;;;;;;21.00;72.40;;;;;;5044490;28;1232;-69
2023/10/04 04:14:54;;;;;;;;;;;21.00;72.40;;;;;;5033655;28;1300;-70
2023/10/04 04:17:22;;;;;;;;;;;21.00;72.50;;;;;;5041328;28;1069;-70
2023/10/04 04:19:49;;;;;;;;;;;21.00;72.40;;;;;;5047717;28;1126;-69
2023/10/04 04:22:15;;;;;;;;;;;21.00;72.40;;;;;;5027758;28;1065;-69
2023/10/04 04:24:41;;;;;;;;;;;21.00;72.50;;;;;;5047601;28;1901;-70
2023/10/04 04:27:07;;;;;;;;;;;21.00;72.50;;;;;;5035101;28;1265;-70
2023/10/04 04:29:32;;;;;;;;;;;21.00;73.20;;;;;;5051244;28;1077;-70
2023/10/04 04:31:58;;;;;;;;;;;21.00;72.50;;;;;;5034779;28;1007;-70
2023/10/04 04:34:25;;;;;;;;;;;21.00;72.40;;;;;;5048127;28;1315;-69
2023/10/04 04:36:51;;;;;;;;;;;21.00;72.50;;;;;;5039085;28;943;-70
2023/10/04 04:39:18;;;;;;;;;;;21.00;72.50;;;;;;5020665;28;1321;-69
2023/10/04 04:41:45;;;;;;;;;;;21.00;72.50;;;;;;5045684;28;1099;-69
2023/10/04 04:44:11;;;;;;;;;;;21.00;72.50;;;;;;5051632;28;1969;-69
2023/10/04 04:46:38;;;;;;;;;;;21.00;72.50;;;;;;5019714;28;1338;-70
2023/10/04 04:49:04;;;;;;;;;;;21.00;72.50;;;;;;5043253;28;1444;-69
2023/10/04 04:51:31;;;;;;;;;;;21.00;72.50;;;;;;5052420;28;1259;-70
2023/10/04 04:53:56;;;;;;;;;;;21.00;72.50;;;;;;5027869;28;1472;-70
2023/10/04 04:56:23;;;;;;;;;;;21.00;72.50;;;;;;5030126;28;1503;-69
2023/10/04 04:58:51;;;;;;;;;;;21.00;72.50;;;;;;5030649;28;1454;-70
2023/10/04 05:01:16;;;;;;;;;;;21.10;72.50;;;;;;5051639;28;1302;-70
2023/10/04 05:03:42;;;;;;;;;;;21.00;72.50;;;;;;5033310;28;1965;-70
2023/10/04 05:06:13;;;;;;;;;;;21.00;72.50;;;;;;5049726;28;1433;-70
2023/10/04 05:08:40;;;;;;;;;;;21.00;72.50;;;;;;5012602;28;1246;-70
2023/10/04 05:11:06;;;;;;;;;;;21.00;72.50;;;;;;5031901;28;1379;-70
2023/10/04 05:13:31;;;;;;;;;;;21.00;72.50;;;;;;5030138;28;1464;-70
2023/10/04 05:15:57;;;;;;;;;;;21.00;72.50;;;;;;5053937;28;1612;-69
2023/10/04 05:18:22;;;;;;;;;;;21.00;72.50;;;;;;5054106;28;1539;-70
2023/10/04 05:20:52;;;;;;;;;;;21.00;72.50;;;;;;5054944;28;1212;-70
2023/10/04 05:23:18;;;;;;;;;;;21.00;72.60;;;;;;5031691;28;1902;-69
2023/10/04 05:25:44;;;;;;;;;;;21.00;72.50;;;;;;5049281;28;1409;-68
2023/10/04 05:28:11;;;;;;;;;;;21.00;72.50;;;;;;5046051;28;1516;-69
2023/10/04 05:30:37;;;;;;;;;;;21.00;71.90;;;;;;5051143;28;1363;-68
2023/10/04 05:33:02;;;;;;;;;;;21.00;70.20;;;;;;5057261;28;1448;-68
2023/10/04 05:35:28;;;;;;;;;;;21.00;70.60;;;;;;5054795;28;1358;-69
2023/10/04 05:37:54;;;;;;;;;;;21.00;69.80;;;;;;5050741;28;1792;-69
2023/10/04 05:40:25;;;;;;;;;;;21.00;68.80;;;;;;5054331;28;1806;-68
2023/10/04 05:42:54;;;;;;;;;;;21.00;68.50;;;;;;5054309;28;1910;-67
2023/10/04 05:45:23;;;;;;;;;;;21.00;68.00;;;;;;5028411;28;1326;-67
2023/10/04 05:47:50;;;;;;;;;;;21.00;67.60;;;;;;5052770;28;1273;-68
2023/10/04 05:50:18;;;;;;;;;;;21.00;67.50;;;;;;5052080;28;1323;-67
2023/10/04 05:52:44;;;;;;;;;;;21.00;66.70;;;;;;5036164;28;851;-71
2023/10/04 05:55:09;;;;;;;;;;;20.90;66.30;;;;;;5043763;28;1328;-70
2023/10/04 05:57:38;;;;;;;;;;;20.90;66.60;;;;;;5051128;28;1222;-71
2023/10/04 06:00:21;;;;;;;;;;;20.90;65.80;;;;;;5034298;28;1457;-72
2023/10/04 06:02:48;;;;;;;;;;;20.90;65.80;;;;;;5031954;28;1902;-70
2023/10/04 06:05:14;;;;;;;;;;;20.90;65.80;;;;;;5058355;28;1339;-71
2023/10/04 06:07:40;;;;;;;;;;;20.90;66.00;;;;;;5039065;28;1429;-71
2023/10/04 06:10:06;;;;;;;;;;;20.90;66.10;;;;;;5055391;28;1500;-70
2023/10/04 06:12:31;;;;;;;;;;;20.90;66.40;;;;;;5040491;28;1354;-70
2023/10/04 06:14:57;;;;;;;;;;;20.90;66.70;;;;;;5053026;28;1487;-72
2023/10/04 06:17:23;;;;;;;;;;;20.90;66.90;;;;;;5047494;28;1182;-71
2023/10/04 06:19:48;;;;;;;;;;;20.90;67.10;;;;;;5032931;28;1314;-72
2023/10/04 06:22:14;;;;;;;;;;;20.90;67.30;;;;;;5038561;28;1256;-74
2023/10/04 06:24:39;;;;;;;;;;;20.90;67.60;;;;;;5054117;28;1910;-73
2023/10/04 06:27:05;;;;;;;;;;;20.90;67.80;;;;;;5049883;28;1229;-72
2023/10/04 06:29:30;;;;;;;;;;;20.90;67.80;;;;;;5049943;28;1379;-72
2023/10/04 06:31:58;;;;;;;;;;;20.90;68.00;;;;;;5047966;28;1480;-73
2023/10/04 06:34:24;;;;;;;;;;;20.90;68.10;;;;;;5054619;28;1359;-73
2023/10/04 06:36:49;;;;;;;;;;;20.90;68.10;;;;;;5036981;28;1806;-72
2023/10/04 06:39:16;;;;;;;;;;;20.90;68.20;;;;;;5051102;28;1308;-72
2023/10/04 06:41:41;;;;;;;;;;;20.90;68.30;;;;;;5037464;28;1355;-73
2023/10/04 06:44:08;;;;;;;;;;;20.90;68.40;;;;;;5055534;28;1926;-72
2023/10/04 06:46:35;;;;;;;;;;;20.90;68.40;;;;;;5055701;28;1317;-73
2023/10/04 06:49:00;;;;;;;;;;;20.90;68.50;;;;;;5051144;28;1359;-72
2023/10/04 06:51:26;;;;;;;;;;;20.90;68.60;;;;;;5047588;28;1109;-71
2023/10/04 06:53:51;;;;;;;;;;;20.90;68.70;;;;;;5026590;28;1615;-72
2023/10/04 06:56:17;;;;;;;;;;;20.90;68.80;;;;;;5057083;28;1432;-71
2023/10/04 06:58:42;;;;;;;;;;;20.90;69.60;;;;;;5054068;28;1308;-72
2023/10/04 07:01:08;;;;;;;;;;;20.90;69.00;;;;;;5047926;28;2125;-71
2023/10/04 07:03:33;;;;;;;;;;;20.90;69.00;;;;;;5049149;28;1902;-72
2023/10/04 07:06:00;;;;;;;;;;;20.90;69.10;;;;;;5055634;28;1511;-72
2023/10/04 07:08:32;;;;;;;;;;;20.90;69.20;;;;;;5046863;28;1943;-73
2023/10/04 07:11:00;;;;;;;;;;;20.90;69.20;;;;;;5022424;28;1473;-71
2023/10/04 07:13:32;;;;;;;;;;;20.90;69.50;;;;;;5032039;28;1363;-71
2023/10/04 07:15:57;;;;;;;;;;;21.00;69.90;;;;;;5036395;28;1352;-72
2023/10/04 07:18:23;;;;;;;;;;;21.00;69.90;;;;;;5017694;28;1517;-72
2023/10/04 07:20:49;;;;;;;;;;;21.00;70.00;;;;;;5051191;28;1377;-73
2023/10/04 07:23:16;;;;;;;;;;;21.00;70.10;;;;;;5053038;28;1902;-72
2023/10/04 07:25:43;;;;;;;;;;;21.00;70.20;;;;;;5036976;28;1596;-72
2023/10/04 07:28:09;;;;;;;;;;;21.10;70.40;;;;;;5035652;28;1490;-72
2023/10/04 07:30:35;;;;;;;;;;;21.10;70.40;;;;;;5053059;28;1299;-72
2023/10/04 07:33:01;;;;;;;;;;;21.10;70.40;;;;;;5019726;28;1462;-71
2023/10/04 07:35:27;;;;;;;;;;;21.10;70.40;;;;;;5046917;28;1287;-73
2023/10/04 07:37:53;;;;;;;;;;;21.10;70.50;;;;;;5032944;28;1642;-73
2023/10/04 07:40:19;;;;;;;;;;;21.10;70.50;;;;;;5031962;28;1277;-72
2023/10/04 07:42:45;;;;;;;;;;;21.10;70.50;;;;;;5031847;28;1901;-71
2023/10/04 07:45:11;;;;;;;;;;;21.10;70.50;;;;;;5033816;28;1288;-73
2023/10/04 07:47:37;;;;;;;;;;;21.20;70.70;;;;;;5046722;28;1200;-72
2023/10/04 07:50:03;;;;;;;;;;;21.20;70.80;;;;;;5033547;28;1506;-72
2023/10/04 07:52:29;;;;;;;;;;;21.20;70.80;;;;;;5036229;28;1521;-72
2023/10/04 07:54:56;;;;;;;;;;;21.20;70.80;;;;;;5051464;28;1617;-72
2023/10/04 07:57:22;;;;;;;;;;;21.20;71.00;;;;;;5053128;28;1565;-72
2023/10/04 07:59:48;;;;;;;;;;;21.20;71.00;;;;;;5054568;28;1590;-71
2023/10/04 08:02:13;;;;;;;;;;;21.20;71.00;;;;;;5050356;28;1386;-71
2023/10/04 08:04:39;;;;;;;;;;;21.30;71.10;;;;;;5042250;28;1965;-72
2023/10/04 08:07:12;;;;;;;;;;;21.20;71.00;;;;;;5031936;28;1466;-72
2023/10/04 08:09:38;;;;;;;;;;;21.30;71.10;;;;;;5052495;28;1605;-71
2023/10/04 08:12:07;;;;;;;;;;;21.30;71.00;;;;;;5051142;28;1596;-71
2023/10/04 08:14:32;;;;;;;;;;;21.30;71.00;;;;;;5050671;28;1529;-71
2023/10/04 08:16:58;;;;;;;;;;;21.30;71.10;;;;;;5022097;28;1474;-70
2023/10/04 08:19:24;;;;;;;;;;;21.30;71.00;;;;;;5052663;28;1672;-71
2023/10/04 08:21:49;;;;;;;;;;;21.30;71.00;;;;;;5034374;28;1265;-72
2023/10/04 08:24:15;;;;;;;;;;;21.30;71.10;;;;;;5055923;28;1906;-72
2023/10/04 08:26:41;;;;;;;;;;;21.30;71.10;;;;;;5050137;28;1371;-71
2023/10/04 08:29:06;;;;;;;;;;;21.30;71.30;;;;;;5044058;28;1308;-71
2023/10/04 08:31:33;;;;;;;;;;;21.30;71.50;;;;;;5046280;28;1341;-69
2023/10/04 08:33:59;;;;;;;;;;;21.40;71.60;;;;;;5043715;28;1371;-71
2023/10/04 08:36:24;;;;;;;;;;;21.40;71.50;;;;;;5076530;22;2082;-68
2023/10/04 08:38:49;;;;;;;;;;;21.40;71.50;;;;;;5042448;28;1681;-68
2023/10/04 08:41:16;;;;;;;;;;;21.40;71.50;;;;;;5059082;28;1821;-69
2023/10/04 08:43:43;;;;;;;;;;;21.30;71.40;;;;;;5060464;28;1976;-68
2023/10/04 08:46:08;;;;;;;;;;;21.40;71.40;;;;;;5045542;28;1308;-68
2023/10/04 08:48:34;;;;;;;;;;;21.40;71.50;;;;;;5060894;28;1467;-68
2023/10/04 08:51:02;;;;;;;;;;;21.30;71.50;;;;;;5042875;28;1390;-68
2023/10/04 08:53:32;;;;;;;;;;;21.40;71.60;;;;;;5059761;28;1445;-68
2023/10/04 08:56:02;;;;;;;;;;;21.40;71.60;;;;;;5062673;28;1814;-68
2023/10/04 08:58:28;;;;;;;;;;;21.40;71.60;;;;;;5042267;28;1375;-68
2023/10/04 09:00:53;;;;;;;;;;;21.40;71.60;;;;;;5056932;28;1320;-68
2023/10/04 09:03:19;;;;;;;;;;;21.40;71.60;;;;;;5042864;28;1906;-69
2023/10/04 09:05:50;;;;;;;;;;;21.40;71.60;;;;;;5040826;28;1508;-69
2023/10/04 09:08:16;;;;;;;;;;;21.40;71.60;;;;;;5064070;28;1332;-68
2023/10/04 09:10:42;;;;;;;;;;;21.40;71.60;;;;;;5061147;28;1507;-68
2023/10/04 09:13:09;;;;;;;;;;;21.40;71.70;;;;;;5041876;28;1463;-69
2023/10/04 09:15:35;;;;;;;;;;;21.40;71.70;;;;;;5057088;28;1365;-69
2023/10/04 09:18:02;;;;;;;;;;;21.40;72.00;;;;;;5060955;28;1104;-69
2023/10/04 09:20:35;;;;;;;;;;;21.40;72.00;;;;;;5057700;28;1357;-68
2023/10/04 09:23:01;;;;;;;;;;;21.50;72.10;;;;;;5056987;28;1960;-69
2023/10/04 09:25:39;;;;;;;;;;;21.50;72.10;;;;;;5060777;28;1332;-68
2023/10/04 09:28:07;;;;;;;;;;;21.50;72.10;;;;;;5038219;28;1239;-68
2023/10/04 09:30:36;;;;;;;;;;;21.50;72.00;;;;;;5061513;28;1425;-68
2023/10/04 09:33:03;;;;;;;;;;;21.50;72.10;;;;;;5058882;28;1519;-68
2023/10/04 09:35:40;;;;;;;;;;;21.50;72.10;;;;;;5040865;28;1288;-68
2023/10/04 09:38:12;;;;;;;;;;;21.50;72.10;;;;;;5038079;28;1326;-68
2023/10/04 09:40:38;;;;;;;;;;;21.50;72.30;;;;;;5040587;28;1354;-68
2023/10/04 09:43:03;;;;;;;;;;;21.50;72.40;;;;;;5043064;28;1914;-68
2023/10/04 09:45:31;;;;;;;;;;;21.50;72.40;;;;;;5056472;28;1354;-68
2023/10/04 09:48:01;;;;;;;;;;;21.50;72.40;;;;;;5056552;28;1617;-68
2023/10/04 09:50:26;;;;;;;;;;;21.50;72.20;;;;;;5048778;28;1382;-68
2023/10/04 09:52:52;;;;;;;;;;;21.50;72.20;;;;;;5061192;28;1216;-68
2023/10/04 09:55:20;;;;;;;;;;;21.50;72.20;;;;;;5044412;28;1161;-68
2023/10/04 09:57:47;;;;;;;;;;;21.50;72.10;;;;;;5044101;28;1272;-68
2023/10/04 10:00:17;;;;;;;;;;;21.50;72.20;;;;;;5045875;28;1560;-68
2023/10/04 10:02:52;;;;;;;;;;;21.50;72.20;;;;;;5044792;28;1964;-68
2023/10/04 10:05:36;;;;;;;;;;;21.50;72.90;;;;;;5063507;28;1087;-68
2023/10/04 10:08:04;;;;;;;;;;;21.50;72.10;;;;;;5061912;28;1278;-68
2023/10/04 10:10:33;;;;;;;;;;;21.50;72.10;;;;;;5041114;28;1371;-68
2023/10/04 10:12:59;;;;;;;;;;;21.50;72.20;;;;;;5049881;28;1520;-68
2023/10/04 10:15:24;;;;;;;;;;;21.50;72.10;;;;;;5044057;28;1420;-68
2023/10/04 10:17:51;;;;;;;;;;;21.60;72.10;;;;;;5041674;28;1570;-68
2023/10/04 10:20:17;;;;;;;;;;;21.60;72.10;;;;;;5058590;28;1381;-68
2023/10/04 10:23:02;;;;;;;;;;;21.50;72.10;;;;;;5043876;28;1886;-68
2023/10/04 10:25:33;;;;;;;;;;;21.50;72.10;;;;;;5061580;28;1530;-67
2023/10/04 10:28:01;;;;;;;;;;;21.50;72.10;;;;;;5029034;28;1448;-68
2023/10/04 10:30:28;;;;;;;;;;;21.50;72.20;;;;;;5043586;28;1309;-68
2023/10/04 10:32:57;;;;;;;;;;;21.50;72.30;;;;;;5061253;28;1353;-68
2023/10/04 10:35:41;;;;;;;;;;;21.50;72.30;;;;;;5045341;28;1444;-68
2023/10/04 10:38:26;;;;;;;;;;;21.50;72.30;;;;;;5060664;28;1582;-68
2023/10/04 10:40:52;;;;;;;;;;;21.50;72.40;;;;;;5047465;28;1345;-68
2023/10/04 10:43:18;;;;;;;;;;;21.50;72.50;;;;;;5064357;28;1906;-67
2023/10/04 10:45:43;;;;;;;;;;;21.50;72.60;;;;;;5061642;28;1375;-68
2023/10/04 10:48:12;;;;;;;;;;;21.50;72.80;;;;;;5025367;28;1207;-68
2023/10/04 10:50:40;;;;;;;;;;;21.50;72.90;;;;;;5042896;28;1809;-68
2023/10/04 10:53:06;;;;;;;;;;;21.50;73.00;;;;;;5044343;28;1629;-67
2023/10/04 10:55:34;;;;;;;;;;;21.60;72.90;;;;;;5045615;28;1582;-68
2023/10/04 10:58:00;;;;;;;;;;;21.50;72.80;;;;;;5044244;28;1435;-67
2023/10/04 11:00:31;;;;;;;;;;;21.60;72.80;;;;;;5061942;28;1272;-68
2023/10/04 11:02:57;;;;;;;;;;;21.60;72.70;;;;;;5043535;28;1953;-68
2023/10/04 11:05:22;;;;;;;;;;;21.60;72.70;;;;;;5044194;28;1396;-68
2023/10/04 11:07:48;;;;;;;;;;;21.60;72.70;;;;;;5064539;28;1415;-68
2023/10/04 11:10:17;;;;;;;;;;;21.60;72.80;;;;;;5050309;28;1658;-68
2023/10/04 11:12:49;;;;;;;;;;;21.60;72.80;;;;;;5045200;28;1493;-68
2023/10/04 11:15:20;;;;;;;;;;;21.60;72.80;;;;;;5060323;28;1489;-67
2023/10/04 11:17:46;;;;;;;;;;;21.60;72.80;;;;;;5062048;28;1403;-67
2023/10/04 11:20:12;;;;;;;;;;;21.60;72.70;;;;;;5065088;28;1305;-68
2023/10/04 11:22:37;;;;;;;;;;;21.60;72.70;;;;;;5057039;28;1475;-68
2023/10/04 11:25:03;;;;;;;;;;;21.60;72.60;;;;;;5042869;28;1947;-68
2023/10/04 11:27:29;;;;;;;;;;;21.60;72.60;;;;;;5061534;28;1428;-67
2023/10/04 11:29:55;;;;;;;;;;;21.60;72.70;;;;;;5044214;28;1476;-67
2023/10/04 11:32:21;;;;;;;;;;;21.60;72.70;;;;;;5041845;28;1367;-67
2023/10/04 11:34:47;;;;;;;;;;;21.60;72.90;;;;;;5059608;28;1487;-67
2023/10/04 11:37:13;;;;;;;;;;;21.60;72.90;;;;;;5042481;28;1396;-68
2023/10/04 11:39:39;;;;;;;;;;;21.60;72.90;;;;;;5060051;28;1497;-68
2023/10/04 11:42:06;;;;;;;;;;;21.60;72.90;;;;;;5060930;28;1442;-67
2023/10/04 11:44:33;;;;;;;;;;;21.60;72.80;;;;;;5040918;28;1969;-68
2023/10/04 11:47:03;;;;;;;;;;;21.60;72.90;;;;;;5042738;28;1512;-67
2023/10/04 11:49:32;;;;;;;;;;;21.60;72.90;;;;;;5058660;28;1311;-68
2023/10/04 11:51:59;;;;;;;;;;;21.60;72.80;;;;;;5041528;28;1554;-67
2023/10/04 11:54:35;;;;;;;;;;;21.60;72.90;;;;;;5051253;28;1476;-68
2023/10/04 11:57:00;;;;;;;;;;;21.60;72.90;;;;;;5040476;28;1433;-68
2023/10/04 11:59:30;;;;;;;;;;;21.60;72.90;;;;;;5062243;28;1424;-68
2023/10/04 12:01:55;;;;;;;;;;;21.60;73.20;;;;;;5060851;28;1415;-67
2023/10/04 12:04:21;;;;;;;;;;;21.60;73.50;;;;;;5058263;28;2029;-68
2023/10/04 12:06:47;;;;;;;;;;;21.60;72.80;;;;;;5061697;28;1303;-67
2023/10/04 12:09:13;;;;;;;;;;;21.60;71.70;;;;;;5043935;28;1462;-67
2023/10/04 12:11:39;;;;;;;;;;;21.50;71.00;;;;;;5049133;28;1429;-67
2023/10/04 12:14:05;;;;;;;;;;;21.50;70.20;;;;;;5059895;28;1517;-67
2023/10/04 12:16:33;;;;;;;;;;;21.50;69.80;;;;;;5059534;28;1338;-67
2023/10/04 12:18:59;;;;;;;;;;;21.50;69.60;;;;;;5062156;28;1730;-67
2023/10/04 12:21:25;;;;;;;;;;;21.50;69.20;;;;;;5059805;28;2258;-67
2023/10/04 12:23:51;;;;;;;;;;;21.40;67.80;;;;;;5062641;28;1914;-67
2023/10/04 12:26:16;;;;;;;;;;;21.40;63.60;;;;;;5064421;28;1415;-67
2023/10/04 12:28:42;;;;;;;;;;;21.30;62.20;;;;;;5058773;28;1370;-67
2023/10/04 12:31:10;;;;;;;;;;;21.30;62.80;;;;;;5057692;28;1920;-67
2023/10/04 12:33:35;;;;;;;;;;;21.30;63.30;;;;;;5057228;28;1975;-67
2023/10/04 12:36:01;;;;;;;;;;;21.20;63.60;;;;;;5061337;28;1293;-67
2023/10/04 12:38:26;;;;;;;;;;;21.20;64.10;;;;;;5062564;28;1319;-67
2023/10/04 12:40:52;;;;;;;;;;;21.20;64.80;;;;;;5059047;28;1376;-67
2023/10/04 12:43:17;;;;;;;;;;;21.20;64.30;;;;;;5060266;28;1973;-67
2023/10/04 12:45:44;;;;;;;;;;;21.20;64.30;;;;;;5060470;28;2045;-67
2023/10/04 12:48:16;;;;;;;;;;;21.20;64.40;;;;;;5044578;28;1740;-67
2023/10/04 12:50:42;;;;;;;;;;;21.20;64.60;;;;;;5059747;28;1627;-67
2023/10/04 12:53:09;;;;;;;;;;;21.20;64.60;;;;;;5054608;28;1458;-67
2023/10/04 12:55:35;;;;;;;;;;;21.10;64.50;;;;;;5057044;28;1547;-67
2023/10/04 12:58:01;;;;;;;;;;;21.20;64.50;;;;;;5056594;28;2056;-67
2023/10/04 13:00:26;;;;;;;;;;;21.10;64.20;;;;;;5060428;28;1041;-67
2023/10/04 13:02:55;;;;;;;;;;;21.10;64.20;;;;;;5058070;28;1914;-67
2023/10/04 13:05:21;;;;;;;;;;;21.10;64.20;;;;;;5061507;28;1376;-67
2023/10/04 13:07:47;;;;;;;;;;;21.10;64.30;;;;;;5037539;28;2099;-67
2023/10/04 13:10:15;;;;;;;;;;;21.10;64.40;;;;;;5057180;28;2181;-67
2023/10/04 13:12:41;;;;;;;;;;;21.10;64.30;;;;;;5058313;28;1433;-67
2023/10/04 13:15:06;;;;;;;;;;;21.10;64.30;;;;;;5045385;28;1200;-67
2023/10/04 13:17:32;;;;;;;;;;;21.10;64.00;;;;;;5060883;28;1427;-67
2023/10/04 13:20:01;;;;;;;;;;;21.10;64.30;;;;;;5060276;28;1230;-67
2023/10/04 13:22:28;;;;;;;;;;;21.10;64.70;;;;;;5045657;28;1674;-68
2023/10/04 13:24:53;;;;;;;;;;;21.10;64.20;;;;;;5060084;28;1898;-67
2023/10/04 13:27:19;;;;;;;;;;;21.10;64.10;;;;;;5061634;28;1897;-67
2023/10/04 13:29:45;;;;;;;;;;;21.10;64.40;;;;;;5063786;28;1225;-67
2023/10/04 13:32:12;;;;;;;;;;;21.10;64.30;;;;;;5059723;28;1332;-67
2023/10/04 13:34:39;;;;;;;;;;;21.00;64.30;;;;;;5053971;28;1368;-68
2023/10/04 13:37:06;;;;;;;;;;;21.00;64.10;;;;;;5052683;28;1261;-67
2023/10/04 13:39:32;;;;;;;;;;;21.00;64.20;;;;;;5064641;28;1148;-67
2023/10/04 13:41:58;;;;;;;;;;;21.00;64.00;;;;;;5060776;28;1190;-67
2023/10/04 13:44:23;;;;;;;;;;;21.00;64.20;;;;;;5061131;28;1898;-68
2023/10/04 13:46:49;;;;;;;;;;;21.00;64.00;;;;;;5064697;28;1294;-68
2023/10/04 13:49:15;;;;;;;;;;;21.00;64.10;;;;;;5052400;28;1237;-67
2023/10/04 13:51:42;;;;;;;;;;;21.00;64.40;;;;;;5061319;28;1644;-67
2023/10/04 13:54:08;;;;;;;;;;;21.00;63.70;;;;;;5060926;28;1497;-67
2023/10/04 13:56:33;;;;;;;;;;;21.00;62.70;;;;;;5061998;28;1401;-67
2023/10/04 13:58:59;;;;;;;;;;;21.00;63.00;;;;;;5064039;28;1454;-67
2023/10/04 14:01:24;;;;;;;;;;;21.00;63.10;;;;;;5061592;28;1431;-67
2023/10/04 14:03:51;;;;;;;;;;;21.00;63.20;;;;;;5063595;28;1955;-67
2023/10/04 14:06:17;;;;;;;;;;;21.00;62.90;;;;;;5061170;28;1656;-67
2023/10/04 14:08:43;;;;;;;;;;;21.00;63.20;;;;;;5059901;28;1487;-67
2023/10/04 14:11:08;;;;;;;;;;;21.00;63.00;;;;;;5063704;28;1468;-67
2023/10/04 14:13:34;;;;;;;;;;;21.00;63.00;;;;;;5065166;28;990;-67
2023/10/04 14:16:01;;;;;;;;;;;21.00;62.90;;;;;;5062051;28;1602;-67
2023/10/04 14:18:27;;;;;;;;;;;21.00;62.60;;;;;;5063770;28;1440;-67
2023/10/04 14:20:56;;;;;;;;;;;21.00;62.30;;;;;;5061630;28;1476;-67
2023/10/04 14:23:22;;;;;;;;;;;21.00;62.40;;;;;;5064137;28;1898;-67
2023/10/04 14:25:49;;;;;;;;;;;21.00;62.60;;;;;;5063680;28;1482;-67
2023/10/04 14:28:14;;;;;;;;;;;20.90;62.70;;;;;;5063535;28;1264;-67
2023/10/04 14:30:40;;;;;;;;;;;20.90;62.80;;;;;;5063224;28;1569;-67